Time;durP1;ratioP1;P1;durP2;ratioP2;P2;SDS_P1;SDS_P2;PMS_P1;PMS_P2;Temp;Humidity;BMP_temperature;BMP_pressure;BME280_temperature;BME280_humidity;BME280_pressure;Samples;Min_cycle;Max_cycle;Signal;HPM_P1;HPM_P2
2022/11/28 00:02:11;;;;;;;;;;;8.80;76.60;;;;;;5023385;28;19918;-81
2022/11/28 00:04:37;;;;;;;;;;;8.70;76.50;;;;;;5013579;28;19943;-81
2022/11/28 00:07:03;;;;;;;;;;;8.70;77.10;;;;;;5029966;28;20019;-82
2022/11/28 00:09:28;;;;;;;;;;;8.60;77.10;;;;;;5032117;28;19917;-82
2022/11/28 00:11:54;;;;;;;;;;;8.50;77.90;;;;;;5032032;28;19943;-81
2022/11/28 00:14:19;;;;;;;;;;;8.60;78.10;;;;;;5030410;28;20012;-82
2022/11/28 00:16:45;;;;;;;;;;;8.50;78.30;;;;;;5016103;28;19913;-81
2022/11/28 00:19:11;;;;;;;;;;;8.60;77.70;;;;;;5032072;28;20355;-82
2022/11/28 00:21:36;;;;;;;;;;;8.60;78.30;;;;;;5030138;28;19944;-81
2022/11/28 00:24:02;;;;;;;;;;;8.60;78.60;;;;;;5030337;28;20004;-81
2022/11/28 00:26:29;;;;;;;;;;;8.50;79.60;;;;;;5029436;28;20441;-82
2022/11/28 00:28:55;;;;;;;;;;;8.60;79.30;;;;;;5032954;28;19913;-82
2022/11/28 00:31:22;;;;;;;;;;;8.50;80.00;;;;;;5013271;28;19913;-81
2022/11/28 00:33:47;;;;;;;;;;;8.50;80.30;;;;;;5021329;28;19920;-81
2022/11/28 00:36:13;;;;;;;;;;;8.50;80.10;;;;;;5028795;28;19913;-82
2022/11/28 00:38:39;;;;;;;;;;;8.60;80.20;;;;;;5032804;28;19914;-82
2022/11/28 00:41:09;;;;;;;;;;;8.60;80.30;;;;;;5036537;28;19913;-82
2022/11/28 00:43:35;;;;;;;;;;;8.50;80.60;;;;;;5031587;28;20573;-81
2022/11/28 00:46:01;;;;;;;;;;;8.50;81.20;;;;;;5015193;28;19952;-82
2022/11/28 00:48:26;;;;;;;;;;;8.60;80.80;;;;;;5031121;28;19921;-81
2022/11/28 00:50:52;;;;;;;;;;;8.50;80.70;;;;;;5032607;28;19917;-81
2022/11/28 00:53:18;;;;;;;;;;;8.50;80.70;;;;;;5010117;28;19974;-82
2022/11/28 00:55:43;;;;;;;;;;;8.60;80.00;;;;;;5006737;28;19917;-82
2022/11/28 00:58:09;;;;;;;;;;;8.60;80.20;;;;;;5032043;28;19920;-81
2022/11/28 01:00:35;;;;;;;;;;;8.60;80.50;;;;;;5014199;28;19971;-81
2022/11/28 01:03:00;;;;;;;;;;;8.60;79.80;;;;;;5030723;28;19920;-82
2022/11/28 01:05:26;;;;;;;;;;;8.50;80.10;;;;;;5030798;28;19974;-82
2022/11/28 01:07:51;;;;;;;;;;;8.50;80.20;;;;;;5032963;28;20302;-83
2022/11/28 01:10:17;;;;;;;;;;;8.50;80.30;;;;;;5032255;28;19927;-83
2022/11/28 01:12:42;;;;;;;;;;;8.50;80.30;;;;;;5030805;28;19923;-82
2022/11/28 01:15:09;;;;;;;;;;;8.60;80.70;;;;;;5014644;28;19917;-82
2022/11/28 01:17:34;;;;;;;;;;;8.50;81.10;;;;;;5032033;28;19913;-81
2022/11/28 01:20:00;;;;;;;;;;;8.50;80.50;;;;;;5009391;28;19959;-80
2022/11/28 01:22:25;;;;;;;;;;;8.50;80.70;;;;;;5027307;28;19992;-80
2022/11/28 01:24:51;;;;;;;;;;;8.50;80.70;;;;;;5028925;28;19960;-81
2022/11/28 01:27:16;;;;;;;;;;;8.40;80.80;;;;;;5032383;28;19917;-80
2022/11/28 01:29:41;;;;;;;;;;;8.20;82.40;;;;;;5014772;28;19919;-80
2022/11/28 01:32:07;;;;;;;;;;;8.20;82.50;;;;;;5013497;28;20008;-81
2022/11/28 01:34:32;;;;;;;;;;;8.10;83.40;;;;;;5029884;28;19948;-81
2022/11/28 01:36:59;;;;;;;;;;;8.20;83.40;;;;;;5029377;28;19918;-80
2022/11/28 01:39:24;;;;;;;;;;;8.10;83.20;;;;;;5012492;28;19913;-80
2022/11/28 01:41:50;;;;;;;;;;;8.10;83.30;;;;;;5014377;28;19920;-80
2022/11/28 01:44:15;;;;;;;;;;;8.10;84.30;;;;;;5014363;28;19936;-80
2022/11/28 01:46:41;;;;;;;;;;;8.00;83.90;;;;;;5014738;28;19925;-81
2022/11/28 01:49:10;;;;;;;;;;;8.00;84.40;;;;;;5039570;28;19917;-81
2022/11/28 01:51:36;;;;;;;;;;;8.00;84.40;;;;;;5031954;28;19917;-80
2022/11/28 01:54:02;;;;;;;;;;;8.00;85.20;;;;;;5030421;28;20395;-80
2022/11/28 01:56:30;;;;;;;;;;;8.10;85.10;;;;;;5033632;28;19919;-80
2022/11/28 01:58:58;;;;;;;;;;;8.20;84.40;;;;;;5015814;28;19913;-80
2022/11/28 02:01:24;;;;;;;;;;;8.10;85.00;;;;;;5031237;28;19920;-80
2022/11/28 02:03:51;;;;;;;;;;;8.10;85.10;;;;;;5032936;28;20401;-80
2022/11/28 02:06:18;;;;;;;;;;;8.10;85.00;;;;;;5015388;28;20409;-80
2022/11/28 02:08:44;;;;;;;;;;;8.10;85.00;;;;;;5033630;28;19920;-80
2022/11/28 02:11:19;;;;;;;;;;;8.10;85.10;;;;;;5020743;28;19917;-81
2022/11/28 02:14:03;;;;;;;;;;;8.10;85.70;;;;;;5010140;28;19917;-80
2022/11/28 02:16:37;;;;;;;;;;;8.10;85.60;;;;;;5043420;28;20256;-80
2022/11/28 02:19:21;;;;;;;;;;;8.10;86.10;;;;;;5043025;28;19913;-81
2022/11/28 02:21:47;;;;;;;;;;;8.10;85.70;;;;;;5043056;28;19920;-81
2022/11/28 02:24:18;;;;;;;;;;;8.20;85.10;;;;;;5035660;28;19913;-82
2022/11/28 02:27:02;;;;;;;;;;;8.30;84.70;;;;;;5028817;28;19925;-81
2022/11/28 02:29:46;;;;;;;;;;;8.20;84.60;;;;;;5033833;28;19920;-80
2022/11/28 02:32:14;;;;;;;;;;;8.30;84.20;;;;;;5031517;28;19921;-80
2022/11/28 02:34:58;;;;;;;;;;;8.30;84.40;;;;;;5034795;28;19936;-81
2022/11/28 02:37:36;;;;;;;;;;;8.20;84.70;;;;;;5016825;28;19990;-81
2022/11/28 02:40:07;;;;;;;;;;;8.20;84.70;;;;;;5024980;28;20182;-81
2022/11/28 02:42:37;;;;;;;;;;;8.30;84.30;;;;;;5041341;28;19920;-81
2022/11/28 02:45:06;;;;;;;;;;;8.30;83.90;;;;;;5051482;28;19939;-80
2022/11/28 02:47:34;;;;;;;;;;;8.30;84.10;;;;;;5040094;28;19944;-80
2022/11/28 02:50:11;;;;;;;;;;;8.30;84.00;;;;;;5017588;28;19917;-80
2022/11/28 02:52:42;;;;;;;;;;;8.40;83.30;;;;;;5035849;28;19913;-81
2022/11/28 02:55:07;;;;;;;;;;;8.30;83.50;;;;;;5031489;28;19913;-80
2022/11/28 02:57:37;;;;;;;;;;;8.30;83.30;;;;;;5039068;28;19955;-80
2022/11/28 03:00:21;;;;;;;;;;;8.30;82.90;;;;;;5040768;28;19913;-81
2022/11/28 03:02:49;;;;;;;;;;;8.40;83.00;;;;;;5034372;28;19917;-81
2022/11/28 03:05:20;;;;;;;;;;;8.50;81.80;;;;;;5015687;28;19914;-81
2022/11/28 03:07:59;;;;;;;;;;;8.50;82.10;;;;;;5015747;28;20268;-80
2022/11/28 03:10:32;;;;;;;;;;;8.50;81.80;;;;;;5016432;28;20318;-81
2022/11/28 03:13:09;;;;;;;;;;;8.60;81.30;;;;;;5015402;28;20000;-80
2022/11/28 03:15:58;;;;;;;;;;;8.60;80.80;;;;;;5016772;28;19913;-80
2022/11/28 03:18:25;;;;;;;;;;;8.60;80.50;;;;;;5027576;28;20306;-81
2022/11/28 03:20:56;;;;;;;;;;;8.70;80.70;;;;;;5013327;28;19913;-81
2022/11/28 03:23:42;;;;;;;;;;;8.70;80.50;;;;;;5032451;28;20405;-80
2022/11/28 03:26:10;;;;;;;;;;;8.70;80.80;;;;;;5010102;28;19914;-81
2022/11/28 03:28:36;;;;;;;;;;;8.60;81.10;;;;;;5013170;28;19921;-81
2022/11/28 03:31:04;;;;;;;;;;;8.70;79.90;;;;;;5016345;28;20291;-80
2022/11/28 03:33:39;;;;;;;;;;;8.70;80.10;;;;;;5085591;22;19925;-81
2022/11/28 03:36:14;;;;;;;;;;;8.70;80.60;;;;;;5028816;28;19928;-80
2022/11/28 03:38:44;;;;;;;;;;;8.60;79.80;;;;;;5035539;28;19919;-80
2022/11/28 03:41:19;;;;;;;;;;;8.60;79.60;;;;;;5021440;28;19999;-80
2022/11/28 03:43:55;;;;;;;;;;;8.60;79.50;;;;;;5024370;28;19913;-80
2022/11/28 03:46:24;;;;;;;;;;;8.60;80.00;;;;;;5022003;28;19921;-80
2022/11/28 03:49:01;;;;;;;;;;;8.70;79.80;;;;;;5022281;28;19944;-81
2022/11/28 03:51:36;;;;;;;;;;;8.50;79.70;;;;;;5016797;28;19913;-81
2022/11/28 03:54:32;;;;;;;;;;;8.50;79.90;;;;;;5008067;28;19921;-81
2022/11/28 03:59:43;;;;;;;;;;;8.40;80.80;;;;;;5085572;22;20389;-81
2022/11/28 04:02:28;;;;;;;;;;;8.40;80.10;;;;;;5016074;28;19920;-81
2022/11/28 04:05:12;;;;;;;;;;;8.50;80.00;;;;;;5013381;28;19917;-81
2022/11/28 04:08:00;;;;;;;;;;;8.40;80.20;;;;;;5017072;22;20146;-81
2022/11/28 04:10:49;;;;;;;;;;;8.40;80.30;;;;;;5009944;28;20015;-81
2022/11/28 04:13:21;;;;;;;;;;;8.40;79.50;;;;;;4987089;28;20039;-81
2022/11/28 04:15:59;;;;;;;;;;;8.40;79.70;;;;;;5004289;28;19913;-81
2022/11/28 04:18:25;;;;;;;;;;;8.40;79.40;;;;;;5015165;28;19929;-81
2022/11/28 04:20:51;;;;;;;;;;;8.40;79.80;;;;;;5004747;28;19914;-81
2022/11/28 04:23:21;;;;;;;;;;;8.40;79.60;;;;;;5001355;28;19920;-82
2022/11/28 04:26:09;;;;;;;;;;;;;;;;;;;;;
2022/11/28 04:31:34;;;;;;;;;;;8.40;79.30;;;;;;5052416;28;19998;-82
2022/11/28 04:34:09;;;;;;;;;;;8.40;79.20;;;;;;5046817;28;19935;-82
2022/11/28 04:36:46;;;;;;;;;;;8.50;79.00;;;;;;5068820;28;20357;-82
2022/11/28 04:39:20;;;;;;;;;;;8.40;79.90;;;;;;5024951;28;19920;-81
2022/11/28 04:41:56;;;;;;;;;;;8.40;79.80;;;;;;5028645;28;19959;-82
2022/11/28 04:44:40;;;;;;;;;;;8.30;78.80;;;;;;5030591;28;20339;-81
2022/11/28 04:47:07;;;;;;;;;;;8.20;79.50;;;;;;5022467;28;19917;-81
2022/11/28 04:49:32;;;;;;;;;;;8.10;80.40;;;;;;5031521;28;19913;-81
2022/11/28 04:52:05;;;;;;;;;;;8.20;80.40;;;;;;5029267;28;19913;-81
2022/11/28 04:54:45;;;;;;;;;;;8.10;79.60;;;;;;5034350;28;20369;-81
2022/11/28 04:57:49;;;;;;;;;;;8.20;79.40;;;;;;5029242;28;20000;-82
2022/11/28 05:00:16;;;;;;;;;;;8.30;79.90;;;;;;4988807;28;19920;-79
2022/11/28 05:02:43;;;;;;;;;;;8.40;79.80;;;;;;4988954;28;20014;-80
2022/11/28 05:05:10;;;;;;;;;;;8.40;79.80;;;;;;5009726;28;20016;-80
2022/11/28 05:07:36;;;;;;;;;;;8.40;79.60;;;;;;5029971;28;20027;-80
2022/11/28 05:10:01;;;;;;;;;;;8.40;79.30;;;;;;5030436;28;19909;-79
2022/11/28 05:12:27;;;;;;;;;;;8.50;78.90;;;;;;5031893;28;19936;-80
2022/11/28 05:14:52;;;;;;;;;;;8.40;79.30;;;;;;5051441;28;19913;-80
2022/11/28 05:17:18;;;;;;;;;;;8.40;80.10;;;;;;5031998;28;19917;-80
2022/11/28 05:19:43;;;;;;;;;;;8.40;80.30;;;;;;5030820;28;19963;-80
2022/11/28 05:22:08;;;;;;;;;;;8.40;80.20;;;;;;5054099;28;19913;-80
2022/11/28 05:24:34;;;;;;;;;;;8.40;79.70;;;;;;5025690;28;20385;-80
2022/11/28 05:27:00;;;;;;;;;;;8.40;80.50;;;;;;5032847;28;19921;-80
2022/11/28 05:29:25;;;;;;;;;;;8.50;79.80;;;;;;5048073;28;20016;-80
2022/11/28 05:31:50;;;;;;;;;;;8.50;79.60;;;;;;5036931;28;19917;-80
2022/11/28 05:34:16;;;;;;;;;;;8.60;80.00;;;;;;5036186;28;20385;-79
2022/11/28 05:36:41;;;;;;;;;;;8.50;79.60;;;;;;5035184;28;19921;-80
2022/11/28 05:39:07;;;;;;;;;;;8.60;78.60;;;;;;5051318;28;19913;-80
2022/11/28 05:41:34;;;;;;;;;;;8.60;77.60;;;;;;5036337;28;19992;-80
2022/11/28 05:44:00;;;;;;;;;;;8.60;77.30;;;;;;5034060;28;19924;-80
2022/11/28 05:46:26;;;;;;;;;;;8.60;76.20;;;;;;5036253;28;19921;-80
2022/11/28 05:48:52;;;;;;;;;;;8.70;75.50;;;;;;5029577;28;19997;-80
2022/11/28 05:51:17;;;;;;;;;;;8.60;76.20;;;;;;5033799;28;20440;-80
2022/11/28 05:53:42;;;;;;;;;;;8.50;76.60;;;;;;5031548;28;19919;-79
2022/11/28 05:56:09;;;;;;;;;;;8.50;76.50;;;;;;5034642;28;19914;-80
2022/11/28 05:58:34;;;;;;;;;;;8.50;77.20;;;;;;5032541;28;19913;-78
2022/11/28 06:01:07;;;;;;;;;;;8.40;77.20;;;;;;5033863;28;19940;-80
2022/11/28 06:03:33;;;;;;;;;;;8.40;76.50;;;;;;5035775;28;19928;-80
2022/11/28 06:05:58;;;;;;;;;;;8.40;76.20;;;;;;5030773;28;19921;-79
2022/11/28 06:08:23;;;;;;;;;;;8.50;75.90;;;;;;5033328;28;19917;-79
2022/11/28 06:10:55;;;;;;;;;;;8.50;75.80;;;;;;5036035;28;19921;-79
2022/11/28 06:15:48;;;;;;;;;;;8.30;76.30;;;;;;5029858;28;19929;-79
2022/11/28 06:18:13;;;;;;;;;;;8.40;77.00;;;;;;5017628;28;19932;-80
2022/11/28 06:20:39;;;;;;;;;;;8.30;76.50;;;;;;5014200;28;20346;-80
2022/11/28 06:23:04;;;;;;;;;;;8.30;76.80;;;;;;5013451;28;19925;-80
2022/11/28 06:25:30;;;;;;;;;;;8.40;77.30;;;;;;5015510;28;19964;-80
2022/11/28 06:27:55;;;;;;;;;;;8.40;77.10;;;;;;5002772;28;19922;-80
2022/11/28 06:30:21;;;;;;;;;;;8.40;77.10;;;;;;5027179;28;19968;-79
2022/11/28 06:32:46;;;;;;;;;;;8.40;77.20;;;;;;5013352;28;20384;-79
2022/11/28 06:35:12;;;;;;;;;;;8.30;77.60;;;;;;5011858;28;19964;-79
2022/11/28 06:37:37;;;;;;;;;;;8.30;78.30;;;;;;5005482;28;19914;-78
2022/11/28 06:40:03;;;;;;;;;;;8.30;77.90;;;;;;4999559;28;19921;-81
2022/11/28 06:42:29;;;;;;;;;;;8.30;78.40;;;;;;5002975;28;19913;-81
2022/11/28 06:44:54;;;;;;;;;;;8.30;78.80;;;;;;5010139;28;19937;-80
2022/11/28 06:47:19;;;;;;;;;;;8.50;78.50;;;;;;5009380;28;19963;-80
2022/11/28 06:49:46;;;;;;;;;;;8.50;77.50;;;;;;5013517;28;19913;-81
2022/11/28 06:52:12;;;;;;;;;;;8.50;77.30;;;;;;5007498;28;19967;-81
2022/11/28 06:54:37;;;;;;;;;;;8.60;76.90;;;;;;4998012;28;20529;-80
2022/11/28 06:57:03;;;;;;;;;;;8.70;76.80;;;;;;5010235;28;19917;-80
2022/11/28 06:59:28;;;;;;;;;;;8.60;76.60;;;;;;5011536;28;19925;-80
2022/11/28 07:01:56;;;;;;;;;;;8.40;77.00;;;;;;5005486;28;19917;-79
2022/11/28 07:04:22;;;;;;;;;;;8.50;77.00;;;;;;5024361;28;20005;-80
2022/11/28 07:06:47;;;;;;;;;;;8.30;77.20;;;;;;5024099;28;20048;-80
2022/11/28 07:09:12;;;;;;;;;;;8.30;76.90;;;;;;5007969;28;19936;-80
2022/11/28 07:11:39;;;;;;;;;;;8.20;76.60;;;;;;5015334;28;19910;-80
2022/11/28 07:14:05;;;;;;;;;;;8.30;77.40;;;;;;5012338;28;19925;-80
2022/11/28 07:16:31;;;;;;;;;;;8.20;76.70;;;;;;5014039;28;20003;-81
2022/11/28 07:18:57;;;;;;;;;;;8.20;77.20;;;;;;5029265;28;19921;-80
2022/11/28 07:21:22;;;;;;;;;;;8.20;77.30;;;;;;5012024;28;19918;-81
2022/11/28 07:23:48;;;;;;;;;;;8.20;77.40;;;;;;5013382;28;19973;-80
2022/11/28 07:26:15;;;;;;;;;;;8.10;77.40;;;;;;5028335;28;19914;-81
2022/11/28 07:28:41;;;;;;;;;;;8.20;77.40;;;;;;5008561;28;19969;-81
2022/11/28 07:31:10;;;;;;;;;;;8.10;77.60;;;;;;5009958;28;19921;-82
2022/11/28 07:33:37;;;;;;;;;;;8.10;77.20;;;;;;5005552;28;20000;-83
2022/11/28 07:36:07;;;;;;;;;;;8.20;76.80;;;;;;5011989;28;19924;-82
2022/11/28 07:38:32;;;;;;;;;;;8.20;76.40;;;;;;5011580;28;19921;-82
2022/11/28 07:41:01;;;;;;;;;;;8.20;76.60;;;;;;5011867;28;20323;-82
2022/11/28 07:43:27;;;;;;;;;;;8.10;76.50;;;;;;5013141;28;19956;-83
2022/11/28 07:45:52;;;;;;;;;;;8.10;76.60;;;;;;5011177;28;19917;-83
2022/11/28 07:48:18;;;;;;;;;;;8.10;76.40;;;;;;5012745;28;19918;-80
2022/11/28 07:50:43;;;;;;;;;;;8.20;76.80;;;;;;5011359;28;19923;-80
2022/11/28 07:53:08;;;;;;;;;;;8.20;76.90;;;;;;5027993;28;19964;-79
2022/11/28 07:55:35;;;;;;;;;;;8.20;76.20;;;;;;5009709;28;19919;-81
2022/11/28 07:58:01;;;;;;;;;;;8.20;76.60;;;;;;5029627;28;19924;-80
2022/11/28 08:00:26;;;;;;;;;;;8.10;76.60;;;;;;5012434;28;19923;-81
2022/11/28 08:02:52;;;;;;;;;;;8.10;76.10;;;;;;5004526;28;19913;-81
2022/11/28 08:05:17;;;;;;;;;;;8.20;76.40;;;;;;5010641;28;20040;-81
2022/11/28 08:07:43;;;;;;;;;;;8.30;77.10;;;;;;5009444;28;20404;-81
2022/11/28 08:10:08;;;;;;;;;;;8.30;76.50;;;;;;5007875;28;20449;-81
2022/11/28 08:12:34;;;;;;;;;;;8.50;77.00;;;;;;5011799;28;20316;-81
2022/11/28 08:14:59;;;;;;;;;;;8.50;76.40;;;;;;5010546;28;19967;-81
2022/11/28 08:17:25;;;;;;;;;;;8.50;75.80;;;;;;5009383;28;19972;-81
2022/11/28 08:19:50;;;;;;;;;;;8.50;76.00;;;;;;5013633;28;19913;-82
2022/11/28 08:22:16;;;;;;;;;;;8.40;75.30;;;;;;5016692;28;19913;-80
2022/11/28 08:24:41;;;;;;;;;;;8.50;76.20;;;;;;5008521;28;20424;-80
2022/11/28 08:27:07;;;;;;;;;;;8.60;76.30;;;;;;4999863;28;20483;-80
2022/11/28 08:29:33;;;;;;;;;;;8.60;75.70;;;;;;5004898;28;19917;-80
2022/11/28 08:31:58;;;;;;;;;;;8.60;75.70;;;;;;5005387;28;19971;-81
2022/11/28 08:34:24;;;;;;;;;;;8.60;75.50;;;;;;5009589;28;19929;-81
2022/11/28 08:36:49;;;;;;;;;;;8.50;75.30;;;;;;5008746;28;19913;-81
2022/11/28 08:39:15;;;;;;;;;;;8.50;76.00;;;;;;5011129;28;19913;-80
2022/11/28 08:41:40;;;;;;;;;;;8.50;75.30;;;;;;5011382;28;20561;-80
2022/11/28 08:44:05;;;;;;;;;;;8.40;76.60;;;;;;5009955;28;20020;-81
2022/11/28 08:46:32;;;;;;;;;;;8.30;76.40;;;;;;5011599;28;19916;-79
2022/11/28 08:48:57;;;;;;;;;;;8.30;76.50;;;;;;5010879;28;20762;-81
2022/11/28 08:51:23;;;;;;;;;;;8.30;77.30;;;;;;5011911;28;19924;-81
2022/11/28 08:53:49;;;;;;;;;;;8.30;76.60;;;;;;5011812;28;19968;-80
2022/11/28 08:56:15;;;;;;;;;;;8.30;77.30;;;;;;5008809;28;21677;-81
2022/11/28 08:58:40;;;;;;;;;;;8.30;77.30;;;;;;5003719;28;19918;-81
2022/11/28 09:01:16;;;;;;;;;;;8.30;77.50;;;;;;5009443;28;19917;-83
2022/11/28 09:03:42;;;;;;;;;;;8.30;77.00;;;;;;5003514;28;20365;-80
2022/11/28 09:06:07;;;;;;;;;;;8.20;77.50;;;;;;5011243;28;19914;-81
2022/11/28 09:08:33;;;;;;;;;;;8.30;78.30;;;;;;5015810;28;19928;-81
2022/11/28 09:10:58;;;;;;;;;;;8.40;78.10;;;;;;5013953;28;19941;-83
2022/11/28 09:13:24;;;;;;;;;;;8.50;77.20;;;;;;5012965;28;19918;-83
2022/11/28 09:15:49;;;;;;;;;;;8.50;77.00;;;;;;5012093;28;19921;-83
2022/11/28 09:18:16;;;;;;;;;;;8.60;76.90;;;;;;5017003;28;19909;-84
2022/11/28 09:20:42;;;;;;;;;;;8.70;77.70;;;;;;5015754;28;20386;-84
2022/11/28 09:23:08;;;;;;;;;;;8.60;77.00;;;;;;5015615;28;19910;-84
2022/11/28 09:25:34;;;;;;;;;;;8.80;77.00;;;;;;5015078;28;19920;-84
2022/11/28 09:28:00;;;;;;;;;;;8.80;77.20;;;;;;5012672;28;20079;-84
2022/11/28 09:30:25;;;;;;;;;;;8.80;77.40;;;;;;5014810;28;20000;-84
2022/11/28 09:32:51;;;;;;;;;;;8.80;77.00;;;;;;5058749;22;19928;-79
2022/11/28 09:35:17;;;;;;;;;;;8.80;78.00;;;;;;5056615;28;19912;-80
2022/11/28 09:37:42;;;;;;;;;;;8.80;78.50;;;;;;5072960;28;19917;-79
2022/11/28 09:40:15;;;;;;;;;;;8.80;78.50;;;;;;5069236;28;19943;-78
2022/11/28 09:42:42;;;;;;;;;;;8.80;78.50;;;;;;5062441;28;19916;-78
2022/11/28 09:45:14;;;;;;;;;;;8.80;78.60;;;;;;5070801;28;19958;-78
2022/11/28 09:47:41;;;;;;;;;;;8.80;78.80;;;;;;5069438;28;19928;-77
2022/11/28 09:50:14;;;;;;;;;;;8.90;78.40;;;;;;5068208;28;19927;-79
2022/11/28 09:52:54;;;;;;;;;;;8.80;79.00;;;;;;5046812;28;19917;-77
2022/11/28 09:55:38;;;;;;;;;;;8.90;78.40;;;;;;5065032;28;19920;-77
2022/11/28 09:58:07;;;;;;;;;;;8.90;78.60;;;;;;5073309;28;19913;-76
2022/11/28 10:00:35;;;;;;;;;;;8.90;78.50;;;;;;5057816;28;19912;-78
2022/11/28 10:03:00;;;;;;;;;;;9.00;78.10;;;;;;5065043;28;20415;-78
2022/11/28 10:05:40;;;;;;;;;;;9.00;78.50;;;;;;5065545;28;19927;-77
2022/11/28 10:08:15;;;;;;;;;;;9.00;78.90;;;;;;5059899;28;19939;-77
2022/11/28 10:10:54;;;;;;;;;;;9.00;78.60;;;;;;5084963;28;19921;-78
2022/11/28 10:13:26;;;;;;;;;;;9.10;78.60;;;;;;5066205;28;20374;-78
2022/11/28 10:16:09;;;;;;;;;;;9.10;78.40;;;;;;5071107;28;19913;-78
2022/11/28 10:18:47;;;;;;;;;;;9.10;78.60;;;;;;5073265;28;19950;-76
2022/11/28 10:21:22;;;;;;;;;;;9.20;78.90;;;;;;5046052;28;19921;-78
2022/11/28 10:23:49;;;;;;;;;;;9.10;78.90;;;;;;5064245;28;20329;-78
2022/11/28 10:26:34;;;;;;;;;;;9.10;79.10;;;;;;5064537;28;20031;-78
2022/11/28 10:29:03;;;;;;;;;;;9.20;79.00;;;;;;5044885;28;19925;-78
2022/11/28 10:31:40;;;;;;;;;;;9.30;78.70;;;;;;5063845;28;19917;-77
2022/11/28 10:34:10;;;;;;;;;;;9.10;79.00;;;;;;5045727;28;19917;-77
2022/11/28 10:36:56;;;;;;;;;;;9.10;79.80;;;;;;5061593;28;20401;-76
2022/11/28 10:39:23;;;;;;;;;;;9.10;79.60;;;;;;5045080;28;20018;-78
2022/11/28 10:42:10;;;;;;;;;;;9.00;79.70;;;;;;5064265;28;19913;-78
2022/11/28 10:45:05;;;;;;;;;;;9.10;80.30;;;;;;5045504;28;20063;-78
2022/11/28 10:47:48;;;;;;;;;;;9.00;80.30;;;;;;4997877;28;19917;-77
2022/11/28 10:50:14;;;;;;;;;;;9.10;80.30;;;;;;5046118;28;19923;-79
2022/11/28 10:52:45;;;;;;;;;;;9.00;80.20;;;;;;5062974;28;19912;-77
2022/11/28 10:55:28;;;;;;;;;;;9.10;80.30;;;;;;5063855;28;20291;-78
2022/11/28 10:58:12;;;;;;;;;;;9.00;80.20;;;;;;5063963;28;19990;-79
2022/11/28 11:00:38;;;;;;;;;;;9.10;80.70;;;;;;5065475;28;19912;-80
2022/11/28 11:03:04;;;;;;;;;;;9.10;80.70;;;;;;5043404;28;19946;-77
2022/11/28 11:05:31;;;;;;;;;;;9.20;80.40;;;;;;5044786;28;20727;-79
2022/11/28 11:07:58;;;;;;;;;;;9.30;79.80;;;;;;5044756;28;19920;-78
2022/11/28 11:10:27;;;;;;;;;;;9.20;79.40;;;;;;5047561;28;19916;-76
2022/11/28 11:12:52;;;;;;;;;;;9.30;80.20;;;;;;5068051;28;19920;-79
2022/11/28 11:15:20;;;;;;;;;;;9.30;79.40;;;;;;5070032;28;19917;-79
2022/11/28 11:17:49;;;;;;;;;;;9.30;79.70;;;;;;5057909;28;19948;-82
2022/11/28 11:20:24;;;;;;;;;;;9.30;79.90;;;;;;5070630;28;19916;-81
2022/11/28 11:22:54;;;;;;;;;;;9.30;80.30;;;;;;5056220;28;19916;-79
2022/11/28 11:25:19;;;;;;;;;;;9.30;80.00;;;;;;5074008;28;19921;-80
2022/11/28 11:27:47;;;;;;;;;;;9.20;80.40;;;;;;5050871;28;20366;-81
2022/11/28 11:30:27;;;;;;;;;;;9.20;80.70;;;;;;5045486;28;20282;-81
2022/11/28 11:32:54;;;;;;;;;;;9.30;81.30;;;;;;5066366;28;19966;-81
2022/11/28 11:35:21;;;;;;;;;;;9.40;81.30;;;;;;5047681;28;19965;-78
2022/11/28 11:37:47;;;;;;;;;;;9.30;81.60;;;;;;5047465;28;19912;-80
2022/11/28 11:40:18;;;;;;;;;;;9.30;81.50;;;;;;5065603;28;19917;-81
2022/11/28 11:42:50;;;;;;;;;;;9.30;80.80;;;;;;5047950;28;19920;-78
2022/11/28 11:45:33;;;;;;;;;;;9.20;81.30;;;;;;5044956;28;20590;-80
2022/11/28 11:47:59;;;;;;;;;;;9.40;81.80;;;;;;5066768;28;19920;-80
2022/11/28 11:50:26;;;;;;;;;;;9.50;81.60;;;;;;5065743;28;21556;-79
2022/11/28 11:53:02;;;;;;;;;;;9.50;81.50;;;;;;5057864;28;19908;-80
2022/11/28 11:55:29;;;;;;;;;;;9.60;81.30;;;;;;5046586;28;19932;-79
2022/11/28 11:57:56;;;;;;;;;;;9.70;80.40;;;;;;5067209;28;19912;-79
2022/11/28 12:00:24;;;;;;;;;;;9.60;80.80;;;;;;5051398;28;20340;-79
2022/11/28 12:02:57;;;;;;;;;;;9.60;80.50;;;;;;5066421;28;20029;-79
2022/11/28 12:05:32;;;;;;;;;;;9.60;80.70;;;;;;5066537;28;20383;-79
2022/11/28 12:08:14;;;;;;;;;;;9.60;80.70;;;;;;5072105;28;20006;-79
2022/11/28 12:10:41;;;;;;;;;;;9.60;81.10;;;;;;5048873;28;19912;-80
2022/11/28 12:13:13;;;;;;;;;;;9.60;81.10;;;;;;5055471;28;19912;-80
2022/11/28 12:15:43;;;;;;;;;;;9.50;81.00;;;;;;5055647;28;19912;-80
2022/11/28 12:18:31;;;;;;;;;;;9.40;81.10;;;;;;5069734;28;20441;-80
2022/11/28 12:20:59;;;;;;;;;;;9.40;81.90;;;;;;5068449;28;19912;-81
2022/11/28 12:23:43;;;;;;;;;;;9.40;81.60;;;;;;5059312;28;19913;-79
2022/11/28 12:26:28;;;;;;;;;;;9.50;82.10;;;;;;5078745;28;19930;-78
2022/11/28 12:28:59;;;;;;;;;;;9.50;81.80;;;;;;5086669;28;20007;-79
2022/11/28 12:31:44;;;;;;;;;;;9.40;81.30;;;;;;5083851;28;20870;-80
2022/11/28 12:34:28;;;;;;;;;;;9.30;81.70;;;;;;5077184;28;19955;-81
2022/11/28 12:37:05;;;;;;;;;;;9.30;81.90;;;;;;5057304;28;20293;-78
2022/11/28 12:39:39;;;;;;;;;;;9.30;81.60;;;;;;5064947;28;20360;-80
2022/11/28 12:42:15;;;;;;;;;;;9.30;81.70;;;;;;5063459;28;19975;-78
2022/11/28 12:45:02;;;;;;;;;;;9.30;82.10;;;;;;5058738;28;20275;-80
2022/11/28 12:47:33;;;;;;;;;;;9.30;82.10;;;;;;5071782;28;20293;-78
2022/11/28 12:50:12;;;;;;;;;;;9.30;81.90;;;;;;5063246;28;22175;-78
2022/11/28 12:53:01;;;;;;;;;;;9.40;81.70;;;;;;5068369;28;19919;-80
2022/11/28 12:55:35;;;;;;;;;;;9.30;81.90;;;;;;5033881;28;19912;-80
2022/11/28 12:58:19;;;;;;;;;;;9.20;82.00;;;;;;5056617;28;19932;-79
2022/11/28 13:01:05;;;;;;;;;;;9.20;82.10;;;;;;5075389;28;19913;-82
2022/11/28 13:03:43;;;;;;;;;;;9.30;82.60;;;;;;5061057;28;19940;-81
2022/11/28 13:06:41;;;;;;;;;;;9.20;82.80;;;;;;5069892;28;20425;-82
2022/11/28 13:09:09;;;;;;;;;;;9.20;83.20;;;;;;5000764;28;19919;-82
2022/11/28 13:11:35;;;;;;;;;;;9.10;83.10;;;;;;5046417;28;19958;-79
2022/11/28 13:14:04;;;;;;;;;;;9.10;83.30;;;;;;5053148;28;19916;-82
2022/11/28 13:16:34;;;;;;;;;;;9.10;83.30;;;;;;5064174;28;20259;-81
2022/11/28 13:19:18;;;;;;;;;;;9.30;83.60;;;;;;5071811;28;19920;-82
2022/11/28 13:21:58;;;;;;;;;;;9.10;82.90;;;;;;5069968;28;19913;-82
2022/11/28 13:24:27;;;;;;;;;;;9.20;83.00;;;;;;5053384;28;19979;-81
2022/11/28 13:26:57;;;;;;;;;;;9.10;83.30;;;;;;5053979;28;19912;-82
2022/11/28 13:29:41;;;;;;;;;;;9.20;83.50;;;;;;5051865;28;20420;-84
2022/11/28 13:32:07;;;;;;;;;;;9.20;83.40;;;;;;5056815;28;19980;-81
2022/11/28 13:34:33;;;;;;;;;;;9.20;83.50;;;;;;5071396;28;20190;-80
2022/11/28 13:37:11;;;;;;;;;;;9.30;83.50;;;;;;5048098;28;20015;-82
2022/11/28 13:39:51;;;;;;;;;;;9.40;82.80;;;;;;5071600;28;19913;-82
2022/11/28 13:42:31;;;;;;;;;;;9.40;82.80;;;;;;5072369;28;19916;-82
2022/11/28 13:45:19;;;;;;;;;;;9.50;82.50;;;;;;5054070;28;20006;-82
2022/11/28 13:47:44;;;;;;;;;;;9.40;82.60;;;;;;5054402;28;19938;-80
2022/11/28 13:50:30;;;;;;;;;;;9.20;83.10;;;;;;5075005;28;19913;-80
2022/11/28 13:52:56;;;;;;;;;;;9.20;83.00;;;;;;5058958;28;19916;-81
2022/11/28 13:55:43;;;;;;;;;;;9.10;83.60;;;;;;5059845;28;20333;-80
2022/11/28 13:58:29;;;;;;;;;;;9.10;83.70;;;;;;5055319;28;20282;-81
2022/11/28 14:01:11;;;;;;;;;;;9.00;84.30;;;;;;5049871;28;19971;-79
2022/11/28 14:03:49;;;;;;;;;;;9.00;84.40;;;;;;5067847;28;19947;-78
2022/11/28 14:06:18;;;;;;;;;;;9.00;84.80;;;;;;5068287;28;20412;-79
2022/11/28 14:08:45;;;;;;;;;;;8.90;84.90;;;;;;5068442;28;19921;-80
2022/11/28 14:11:16;;;;;;;;;;;9.00;85.00;;;;;;5071755;28;19916;-78
2022/11/28 14:13:49;;;;;;;;;;;8.90;85.20;;;;;;5050574;28;19923;-78
2022/11/28 14:16:23;;;;;;;;;;;8.90;85.10;;;;;;5068687;28;20490;-78
2022/11/28 14:19:02;;;;;;;;;;;8.80;85.30;;;;;;5068376;28;19980;-78
2022/11/28 14:21:36;;;;;;;;;;;8.80;85.90;;;;;;5072102;28;19952;-79
2022/11/28 14:24:02;;;;;;;;;;;8.80;85.80;;;;;;5074924;28;20336;-78
2022/11/28 14:26:31;;;;;;;;;;;8.80;85.90;;;;;;5071077;28;19924;-78
2022/11/28 14:28:56;;;;;;;;;;;8.80;86.20;;;;;;5057117;28;19916;-78
2022/11/28 14:31:35;;;;;;;;;;;8.80;86.40;;;;;;5074984;28;19923;-78
2022/11/28 14:34:02;;;;;;;;;;;8.80;86.70;;;;;;5073366;28;19921;-78
2022/11/28 14:36:29;;;;;;;;;;;8.80;86.80;;;;;;5052991;28;20057;-78
2022/11/28 14:39:03;;;;;;;;;;;8.80;86.80;;;;;;5075032;28;19915;-78
2022/11/28 14:41:29;;;;;;;;;;;8.90;87.10;;;;;;5070448;28;19913;-78
2022/11/28 14:44:14;;;;;;;;;;;8.90;86.90;;;;;;5074037;28;19923;-79
2022/11/28 14:47:00;;;;;;;;;;;9.00;86.80;;;;;;5053755;28;19913;-79
2022/11/28 14:49:25;;;;;;;;;;;9.00;86.50;;;;;;5072824;28;19925;-77
2022/11/28 14:51:52;;;;;;;;;;;8.90;86.60;;;;;;5054394;28;19927;-80
2022/11/28 14:54:20;;;;;;;;;;;9.00;86.60;;;;;;5075987;28;19913;-78
2022/11/28 14:56:46;;;;;;;;;;;8.90;86.70;;;;;;5079007;28;19909;-78
2022/11/28 14:59:11;;;;;;;;;;;8.90;86.70;;;;;;5057749;28;19916;-80